Cadiz, Ohio
Current Conditions -  °F | °C
As of 11:53 AM on Saturday 25 Oct 2014 (Local Time) from KHLG Reporting Station
Broken Clouds Broken Clouds  
Wind Chill: 56°   Ceiling: 9500
Heat Index: 56°   Visibility: 10mi
Dew Point: 46°   Wind: 10mph
Humidity: 69%   Direction: 200°SSW
Pressure: 29.91"   Gusts: NA
Location:  40.27°N, 81°W
Report Text: KHLG 251553Z 20009KT 10SM FEW070 BKN095 13/08 A2991 RMK AO2 SLP134 T01330078
Loading
Personal Weather Stations






























Interactive Weather Map
Tropical Storm Tracking
New forecast layout! Learn more

10-Day Weather Forecast

Advertisements
Track Severe Weather on mobile